»·PEaware :: CNS475 KMFR-KOTH

CNS475 :: KMFR-KOTH

FLIGHT INFORMATION

Flight Status: Arrived
Operator:
Conesul VA
More flights by this operator :: More flights under this callsign
Pilot: Craig H. (6968)
Aircraft: Unknown
(E50P)
More flights by this aircraft type
Origin: KMFR Rogue Valley Intl-Medford
United States
Destination: KOTH North Bend Mun
United States
More flights between these airports :: More routes between these airports
Route: OED COOSE
File this flight plan on PilotEdge
Remarks:
Altitude:
(Current/Filed)
20,000ft
Speed:
(Current/Filed)
400kts
Departed: 22-Mar-20 07:22 AM
Arrived: 22-Mar-20 07:49 AM
Distance/Time
Traveled:
87nm/0:27
Distance/Time
To Go:
Arrived

Flight Plot

Page will automatically refresh every two minutes.

Flight plan parsing failed; only flown route is shown


Map Options




Map Legend


Flown Route
Filed Route
Departure Airport
Arrival Airport
Navaid (VOR, NDB)
Fix

Horizontal Profiles

Position Reports

Time Latitude Longitude Heading Altitude Ground
Speed
22-Mar-20 06:53 42.371833 -122.878304 24 1312ft 0kts
22-Mar-20 06:54 42.371833 -122.878304 24 1312ft 0kts
22-Mar-20 06:55 42.371833 -122.878304 24 1312ft 0kts
22-Mar-20 06:56 42.371833 -122.878304 24 1312ft 0kts
22-Mar-20 06:57 42.371833 -122.878304 24 1312ft 0kts
22-Mar-20 06:58 42.371833 -122.878304 24 1312ft 0kts
22-Mar-20 06:59 42.371833 -122.878304 24 1312ft 0kts
22-Mar-20 07:00 42.371833 -122.878304 24 1312ft 0kts
22-Mar-20 07:01 42.371833 -122.878304 24 1312ft 0kts
22-Mar-20 07:02 42.371833 -122.878304 24 1312ft 0kts
22-Mar-20 07:03 42.371833 -122.878304 24 1312ft 0kts
22-Mar-20 07:04 42.371833 -122.878304 24 1312ft 0kts
22-Mar-20 07:05 42.371833 -122.878304 24 1312ft 0kts
22-Mar-20 07:06 42.371833 -122.878304 24 1312ft 0kts
22-Mar-20 07:07 42.371833 -122.878304 24 1312ft 0kts
22-Mar-20 07:08 42.371833 -122.878304 24 1312ft 0kts
22-Mar-20 07:09 42.371833 -122.878304 24 1312ft 0kts
22-Mar-20 07:10 42.371833 -122.878304 24 1312ft 0kts
22-Mar-20 07:12 42.371833 -122.878304 24 1312ft 0kts
22-Mar-20 07:13 42.371833 -122.878304 24 1312ft 0kts
22-Mar-20 07:14 42.371833 -122.878304 24 1312ft 0kts
22-Mar-20 07:15 42.371833 -122.878304 24 1312ft 0kts
22-Mar-20 07:16 42.371833 -122.878304 24 1312ft 0kts
22-Mar-20 07:17 42.372235 -122.877612 76 1312ft 10kts
22-Mar-20 07:18 42.373467 -122.875264 0 1312ft 14kts
22-Mar-20 07:19 42.377091 -122.876005 339 1309ft 11kts
22-Mar-20 07:20 42.381117 -122.878110 337 1306ft 16kts
22-Mar-20 07:21 42.384769 -122.880031 338 1300ft 12kts
22-Mar-20 07:22 42.378847 -122.875296 159 1363ft 126kts
22-Mar-20 07:23 42.341547 -122.893720 262 4086ft 225kts
22-Mar-20 07:24 42.383832 -122.938055 9 7829ft 231kts
22-Mar-20 07:25 42.449919 -122.920634 9 8982ft 250kts
22-Mar-20 07:26 42.514699 -122.950195 321 11510ft 275kts
22-Mar-20 07:27 42.577096 -123.018741 321 14227ft 300kts
22-Mar-20 07:28 42.642496 -123.090034 324 19768ft 316kts
22-Mar-20 07:29 42.726500 -123.181468 323 20160ft 449kts
22-Mar-20 07:29 42.813735 -123.277056 323 20155ft 503kts
22-Mar-20 07:31 42.943500 -123.419890 323 20168ft 515kts
22-Mar-20 07:32 43.051012 -123.539787 323 20199ft 462kts
22-Mar-20 07:32 43.128529 -123.626340 324 20212ft 425kts
22-Mar-20 07:33 43.217501 -123.731507 308 19387ft 424kts
22-Mar-20 07:35 43.222848 -123.909083 264 16975ft 391kts
22-Mar-20 07:35 43.209860 -124.029571 264 15272ft 358kts
22-Mar-20 07:36 43.196791 -124.148772 264 13872ft 287kts
22-Mar-20 07:38 43.183790 -124.270890 264 11422ft 267kts
22-Mar-20 07:38 43.175755 -124.354122 264 9667ft 261kts
22-Mar-20 07:39 43.167455 -124.451960 265 7565ft 255kts
22-Mar-20 07:40 43.200267 -124.521781 334 5987ft 231kts
22-Mar-20 07:41 43.258503 -124.559991 356 5221ft 241kts
22-Mar-20 07:42 43.310187 -124.511748 58 3980ft 214kts
22-Mar-20 07:43 43.338591 -124.445577 62 3065ft 189kts
22-Mar-20 07:44 43.360388 -124.392906 63 2228ft 126kts
22-Mar-20 07:45 43.377695 -124.350733 63 1520ft 122kts
22-Mar-20 07:46 43.394145 -124.310737 63 862ft 117kts
22-Mar-20 07:47 43.409450 -124.273450 63 263ft 113kts
22-Mar-20 07:48 43.421355 -124.244311 58 11ft 33kts
22-Mar-20 07:49 43.420239 -124.244092 238 13ft 13kts
22-Mar-20 07:50 43.418053 -124.246235 145 23ft 10kts
22-Mar-20 07:51 43.415636 -124.245397 155 27ft 11kts
22-Mar-20 07:52 43.414801 -124.245020 65 27ft 0kts

Navigation Log

Ident Type
Flight plan parsing failed, navigation log unavailable